createdAt,value
2022-12-17T00:01:18.852Z,99877.41
2022-12-17T00:04:04.198Z,99879.69
2022-12-17T00:06:49.848Z,99877.13
2022-12-17T00:09:35.467Z,99877.16
2022-12-17T00:12:20.237Z,99884.28
2022-12-17T00:15:05.034Z,99885.13
2022-12-17T00:17:49.780Z,99891.25
2022-12-17T00:20:34.501Z,99892.09
2022-12-17T00:23:21.116Z,99892.09
2022-12-17T00:26:11.267Z,99890.31
2022-12-17T00:28:57.055Z,99899.06
2022-12-17T00:31:45.177Z,99891.25
2022-12-17T00:34:30.508Z,99893.75
2022-12-17T00:37:15.715Z,99900.66
2022-12-17T00:40:00.318Z,99889.13
2022-12-17T00:42:45.404Z,99901.34
2022-12-17T00:45:31.402Z,99899.59
2022-12-17T00:48:16.635Z,99899.44
2022-12-17T00:51:01.322Z,99903.06
2022-12-17T00:53:45.982Z,99900.47
2022-12-17T00:56:30.796Z,99907.72
2022-12-17T00:59:16.086Z,99909.34
2022-12-17T01:02:00.996Z,99901.56
2022-12-17T01:04:46.069Z,99909.44
2022-12-17T01:07:31.187Z,99921.72
2022-12-17T01:10:15.962Z,99915.53
2022-12-17T01:13:00.749Z,99920.63
2022-12-17T01:15:45.526Z,99930.38
2022-12-17T01:18:36.772Z,99925.09
2022-12-17T01:21:21.923Z,99913.03
2022-12-17T01:24:06.686Z,99919.03
2022-12-17T01:26:51.819Z,99920.94
2022-12-17T01:29:36.674Z,99931.34
2022-12-17T01:32:21.996Z,99938.22
2022-12-17T01:35:06.890Z,99938.69
2022-12-17T01:37:51.729Z,99940.31
2022-12-17T01:40:36.481Z,99944.75
2022-12-17T01:43:21.808Z,99950.78
2022-12-17T01:46:08.166Z,99951.72
2022-12-17T01:49:01.042Z,99953.56
2022-12-17T01:51:48.285Z,99955.25
2022-12-17T01:54:34.144Z,99965.63
2022-12-17T01:57:20.451Z,99967.34
2022-12-17T02:00:20.057Z,99972.41
2022-12-17T02:03:04.772Z,99964.53
2022-12-17T02:05:57.513Z,99960.94
2022-12-17T02:09:16.270Z,99972.38
2022-12-17T02:12:07.922Z,99963.75
2022-12-17T02:15:19.659Z,99964.63
2022-12-17T02:18:15.045Z,99968.25
2022-12-17T02:21:06.877Z,99977.91
2022-12-17T02:24:14.252Z,99985.63
2022-12-17T02:27:05.571Z,99973.56
2022-12-17T02:30:04.494Z,99970.97
2022-12-17T02:32:52.674Z,99972.00
2022-12-17T02:35:43.609Z,99976.38
2022-12-17T02:38:41.381Z,99971.41
2022-12-17T02:41:32.845Z,99974.88
2022-12-17T02:44:18.983Z,99970.41
2022-12-17T02:47:05.179Z,99972.72
2022-12-17T02:49:50.815Z,99974.69
2022-12-17T02:52:39.792Z,99986.81
2022-12-17T02:55:25.562Z,99982.66
2022-12-17T02:58:10.597Z,99983.19
2022-12-17T03:00:55.995Z,99987.84
2022-12-17T03:03:43.875Z,100000.72
2022-12-17T03:06:32.494Z,99994.66
2022-12-17T03:09:17.448Z,99996.00
2022-12-17T03:12:02.201Z,99999.66
2022-12-17T03:14:47.111Z,99995.34
2022-12-17T03:17:31.750Z,99989.03
2022-12-17T03:20:16.833Z,99992.41
2022-12-17T03:23:01.562Z,99998.78
2022-12-17T03:25:46.390Z,99998.22
2022-12-17T03:28:31.053Z,99994.66
2022-12-17T03:31:17.156Z,100006.97
2022-12-17T03:34:02.013Z,100005.22
2022-12-17T03:36:47.294Z,100008.81
2022-12-17T03:39:32.323Z,100008.81
2022-12-17T03:42:17.474Z,100006.97
2022-12-17T03:45:02.530Z,100012.28
2022-12-17T03:47:50.570Z,100008.69
2022-12-17T03:50:35.349Z,100015.84
2022-12-17T03:53:22.885Z,100011.66
2022-12-17T03:56:07.683Z,100008.16
2022-12-17T03:58:52.457Z,99998.50
2022-12-17T04:01:37.244Z,99999.44
2022-12-17T04:04:23.278Z,100001.13
2022-12-17T04:07:08.691Z,100006.06
2022-12-17T04:09:53.358Z,100006.19
2022-12-17T04:12:37.993Z,100015.22
2022-12-17T04:15:24.008Z,100021.44
2022-12-17T04:18:08.814Z,100023.91
2022-12-17T04:20:53.564Z,100031.91
2022-12-17T04:23:38.841Z,100030.16
2022-12-17T04:26:23.843Z,100025.75
2022-12-17T04:29:08.612Z,100032.69
2022-12-17T04:31:54.476Z,100038.13
2022-12-17T04:34:39.112Z,100035.50
2022-12-17T04:37:23.830Z,100038.03
2022-12-17T04:40:08.812Z,100041.47
2022-12-17T04:42:53.598Z,100050.16
2022-12-17T04:45:38.447Z,100045.84
2022-12-17T04:48:26.189Z,100038.69
2022-12-17T04:51:11.259Z,100041.47
2022-12-17T04:53:56.265Z,100038.00
2022-12-17T04:56:41.750Z,100040.56
2022-12-17T04:59:26.946Z,100040.63
2022-12-17T05:02:11.624Z,100048.56
2022-12-17T05:04:56.646Z,100048.38
2022-12-17T05:07:41.555Z,100062.22
2022-12-17T05:10:27.103Z,100050.94
2022-12-17T05:13:19.281Z,100061.19
2022-12-17T05:16:05.079Z,100066.47
2022-12-17T05:18:52.194Z,100067.59
2022-12-17T05:21:37.299Z,100064.00
2022-12-17T05:24:22.223Z,100070.03
2022-12-17T05:27:07.060Z,100069.03
2022-12-17T05:29:51.868Z,100067.97
2022-12-17T05:32:36.705Z,100076.81
2022-12-17T05:35:21.755Z,100074.06
2022-12-17T05:38:06.434Z,100076.81
2022-12-17T05:40:52.208Z,100072.44
2022-12-17T05:43:37.347Z,100080.28
2022-12-17T05:46:24.434Z,100077.53
2022-12-17T05:49:09.072Z,100077.53
2022-12-17T05:51:53.942Z,100081.00
2022-12-17T05:54:39.064Z,100078.66
2022-12-17T05:57:23.721Z,100071.78
2022-12-17T06:00:08.597Z,100079.56
2022-12-17T06:02:53.420Z,100081.28
2022-12-17T06:05:38.485Z,100086.50
2022-12-17T06:08:27.356Z,100093.41
2022-12-17T06:11:13.022Z,100103.84
2022-12-17T06:13:57.828Z,100096.91
2022-12-17T06:16:53.106Z,100101.22
2022-12-17T06:19:37.878Z,100104.75
2022-12-17T06:22:22.727Z,100115.19
2022-12-17T06:25:11.992Z,100110.75
2022-12-17T06:27:56.770Z,100108.91
2022-12-17T06:30:41.555Z,100112.59
2022-12-17T06:33:29.506Z,100114.25
2022-12-17T06:36:22.222Z,100119.63
2022-12-17T06:39:07.810Z,100122.34
2022-12-17T06:41:52.829Z,100126.75
2022-12-17T06:44:45.276Z,100131.09
2022-12-17T06:47:30.094Z,100131.22
2022-12-17T06:50:15.021Z,100132.06
2022-12-17T06:52:59.753Z,100131.16
2022-12-17T06:55:44.601Z,100140.63
2022-12-17T06:58:29.525Z,100138.78
2022-12-17T07:01:14.631Z,100140.81
2022-12-17T07:03:59.604Z,100147.94
2022-12-17T07:06:44.540Z,100153.97
2022-12-17T07:09:29.328Z,100158.44
2022-12-17T07:12:14.420Z,100153.16
2022-12-17T07:14:59.201Z,100153.22
2022-12-17T07:17:44.006Z,100158.44
2022-12-17T07:20:29.750Z,100153.16
2022-12-17T07:23:15.309Z,100161.09
2022-12-17T07:26:01.223Z,100168.09
2022-12-17T07:28:45.991Z,100168.09
2022-12-17T07:31:30.776Z,100168.88
2022-12-17T07:34:15.598Z,100160.28
2022-12-17T07:37:00.379Z,100161.25
2022-12-17T07:39:45.592Z,100172.56
2022-12-17T07:42:50.230Z,100173.41
2022-12-17T07:45:35.296Z,100183.06
2022-12-17T07:48:20.006Z,100183.91
2022-12-17T07:51:09.089Z,100180.41
2022-12-17T07:53:54.350Z,100189.09
2022-12-17T07:56:39.948Z,100196.81
2022-12-17T07:59:24.893Z,100202.16
2022-12-17T08:02:09.759Z,100200.53
2022-12-17T08:05:06.017Z,100203.03
2022-12-17T08:07:50.867Z,100194.91
2022-12-17T08:10:36.257Z,100209.69
2022-12-17T08:13:23.011Z,100203.56
2022-12-17T08:16:10.794Z,100210.50
2022-12-17T08:18:55.700Z,100211.47
2022-12-17T08:21:40.445Z,100208.81
2022-12-17T08:24:25.526Z,100221.91
2022-12-17T08:27:10.740Z,100221.75
2022-12-17T08:29:55.469Z,100227.06
2022-12-17T08:32:41.170Z,100222.69
2022-12-17T08:35:26.749Z,100227.94
2022-12-17T08:38:11.590Z,100228.69
2022-12-17T08:40:56.501Z,100228.59
2022-12-17T08:43:41.317Z,100231.19
2022-12-17T08:46:26.394Z,100228.59
2022-12-17T08:49:11.508Z,100229.47
2022-12-17T08:51:56.093Z,100237.97
2022-12-17T08:54:40.951Z,100246.50
2022-12-17T08:57:32.473Z,100241.16
2022-12-17T09:00:18.159Z,100242.75
2022-12-17T09:03:03.565Z,100235.88
2022-12-17T09:05:52.976Z,100235.91
2022-12-17T09:08:54.454Z,100236.94
2022-12-17T09:11:39.412Z,100243.28
2022-12-17T09:14:24.468Z,100238.72
2022-12-17T09:17:09.283Z,100241.53
2022-12-17T09:20:04.653Z,100255.25
2022-12-17T09:22:50.141Z,100246.59
2022-12-17T09:25:35.626Z,100249.03
2022-12-17T09:28:27.310Z,100246.53
2022-12-17T09:31:17.767Z,100251.53
2022-12-17T09:34:03.476Z,100253.97
2022-12-17T09:36:51.320Z,100261.22
2022-12-17T09:39:36.998Z,100252.38
2022-12-17T09:42:49.676Z,100249.63
2022-12-17T09:45:38.889Z,100255.59
2022-12-17T09:48:32.092Z,100253.56
2022-12-17T09:51:17.180Z,100264.97
2022-12-17T09:54:07.950Z,100264.97
2022-12-17T09:56:55.081Z,100264.09
2022-12-17T09:59:47.913Z,100251.16
2022-12-17T10:02:51.092Z,100260.06
2022-12-17T10:05:42.969Z,100259.19
2022-12-17T10:08:32.210Z,100262.81
2022-12-17T10:11:34.214Z,100266.41
2022-12-17T10:14:31.239Z,100259.41
2022-12-17T10:17:16.101Z,100243.06
2022-12-17T10:20:01.491Z,100256.13
2022-12-17T10:22:46.683Z,100254.66
2022-12-17T10:25:36.501Z,100268.50
2022-12-17T10:28:29.285Z,100264.13
2022-12-17T10:31:14.504Z,100267.72
2022-12-17T10:34:00.558Z,100273.63
2022-12-17T10:36:47.055Z,100267.41
2022-12-17T10:39:50.705Z,100261.97
2022-12-17T10:42:45.770Z,100266.22
2022-12-17T10:45:53.158Z,100273.25
2022-12-17T10:48:43.488Z,100267.34
2022-12-17T10:51:50.134Z,100274.31
2022-12-17T10:54:49.031Z,100284.78
2022-12-17T10:57:56.763Z,100269.84
2022-12-17T11:00:49.800Z,100285.34
2022-12-17T11:03:49.998Z,100276.91
2022-12-17T11:06:44.691Z,100293.25
2022-12-17T11:09:53.509Z,100284.63
2022-12-17T11:12:44.489Z,100287.16
2022-12-17T11:15:38.730Z,100286.03
2022-12-17T11:18:29.443Z,100285.97
2022-12-17T11:21:25.564Z,100290.41
2022-12-17T11:24:15.431Z,100289.75
2022-12-17T11:27:08.721Z,100273.06
2022-12-17T11:30:00.988Z,100279.72
2022-12-17T11:33:00.027Z,100280.72
2022-12-17T11:35:58.445Z,100282.19
2022-12-17T11:38:57.164Z,100288.25
2022-12-17T11:42:20.022Z,100282.88
2022-12-17T11:45:17.965Z,100288.72
2022-12-17T11:48:16.627Z,100291.84
2022-12-17T11:51:34.213Z,100295.31
2022-12-17T11:55:07.202Z,100294.22
2022-12-17T11:58:14.098Z,100288.78
2022-12-17T12:01:13.559Z,100284.25
2022-12-17T12:04:07.431Z,100273.81
2022-12-17T12:07:02.083Z,100273.97
2022-12-17T12:10:06.207Z,100277.66
2022-12-17T12:13:12.844Z,100290.78
2022-12-17T12:16:09.824Z,100287.09
2022-12-17T12:19:11.662Z,100279.06
2022-12-17T12:22:03.951Z,100289.41
2022-12-17T12:25:06.921Z,100289.25
2022-12-17T12:28:29.754Z,100284.69
2022-12-17T12:31:27.167Z,100281.19
2022-12-17T12:34:21.367Z,100285.31
2022-12-17T12:37:08.907Z,100289.66
2022-12-17T12:40:10.922Z,100292.03
2022-12-17T12:42:59.965Z,100286.72
2022-12-17T12:46:06.291Z,100284.88
2022-12-17T12:49:06.450Z,100275.09
2022-12-17T12:51:56.294Z,100282.03
2022-12-17T12:55:08.274Z,100289.81
2022-12-17T12:57:56.594Z,100272.16
2022-12-17T13:00:42.965Z,100267.97
2022-12-17T13:03:52.900Z,100272.06
2022-12-17T13:06:41.128Z,100269.72
2022-12-17T13:09:20.694Z,100264.41
2022-12-17T13:12:02.481Z,100272.22
2022-12-17T13:14:43.769Z,100260.91
2022-12-17T13:17:16.375Z,100269.59
2022-12-17T13:19:57.981Z,100262.47
2022-12-17T13:22:24.774Z,100261.63
2022-12-17T13:24:54.603Z,100263.50
2022-12-17T13:27:33.113Z,100262.56
2022-12-17T13:30:17.701Z,100255.38
2022-12-17T13:32:49.259Z,100245.78
2022-12-17T13:35:40.767Z,100250.91
2022-12-17T13:38:21.033Z,100253.81
2022-12-17T13:41:22.441Z,100245.00
2022-12-17T13:43:58.263Z,100250.97
2022-12-17T13:46:56.739Z,100247.50
2022-12-17T13:49:25.874Z,100249.22
2022-12-17T13:52:11.787Z,100251.00
2022-12-17T13:54:38.326Z,100248.19
2022-12-17T13:57:15.479Z,100256.38
2022-12-17T13:59:49.487Z,100254.47
2022-12-17T14:02:33.918Z,100251.22
2022-12-17T14:05:07.398Z,100255.38
2022-12-17T14:08:45.003Z,100249.56
2022-12-17T14:11:30.670Z,100254.81
2022-12-17T14:13:57.631Z,100256.56
2022-12-17T14:16:24.105Z,100264.59
2022-12-17T14:18:57.206Z,100270.75
2022-12-17T14:21:26.377Z,100262.81
2022-12-17T14:23:53.364Z,100274.44
2022-12-17T14:26:21.431Z,100265.81
2022-12-17T14:28:51.003Z,100260.69
2022-12-17T14:31:27.998Z,100268.53
2022-12-17T14:34:07.222Z,100260.75
2022-12-17T14:36:40.229Z,100263.41
2022-12-17T14:39:20.991Z,100276.69
2022-12-17T14:42:06.085Z,100266.94
2022-12-17T14:44:33.124Z,100272.44
2022-12-17T14:47:23.467Z,100275.00
2022-12-17T14:50:00.544Z,100276.22
2022-12-17T14:52:40.721Z,100272.88
2022-12-17T14:55:31.368Z,100287.69
2022-12-17T14:58:12.747Z,100279.94
2022-12-17T15:00:46.006Z,100286.06
2022-12-17T15:03:27.860Z,100287.09
2022-12-17T15:06:06.705Z,100273.22
2022-12-17T15:08:46.086Z,100294.22
2022-12-17T15:11:14.921Z,100289.00
2022-12-17T15:13:42.287Z,100287.25
2022-12-17T15:16:08.717Z,100290.94
2022-12-17T15:18:35.808Z,100289.22
2022-12-17T15:21:03.546Z,100308.41
2022-12-17T15:23:30.698Z,100300.63
2022-12-17T15:25:57.187Z,100298.88
2022-12-17T15:28:26.785Z,100295.31
2022-12-17T15:30:53.470Z,100302.25
2022-12-17T15:33:19.873Z,100310.97
2022-12-17T15:35:46.250Z,100309.53
2022-12-17T15:38:12.859Z,100310.22
2022-12-17T15:40:39.733Z,100310.00
2022-12-17T15:43:12.129Z,100300.53
2022-12-17T15:45:38.623Z,100318.97
2022-12-17T15:48:05.379Z,100308.56
2022-12-17T15:50:32.074Z,100314.66
2022-12-17T15:52:58.437Z,100310.28
2022-12-17T15:55:24.775Z,100309.50
2022-12-17T15:57:51.115Z,100313.03
2022-12-17T16:00:18.270Z,100316.53
2022-12-17T16:02:44.822Z,100325.25
2022-12-17T16:05:12.355Z,100323.59
2022-12-17T16:07:38.754Z,100323.50
2022-12-17T16:10:06.717Z,100333.06
2022-12-17T16:12:33.595Z,100327.88
2022-12-17T16:14:59.963Z,100330.66
2022-12-17T16:17:26.565Z,100327.13
2022-12-17T16:19:52.934Z,100326.28
2022-12-17T16:22:19.321Z,100333.28
2022-12-17T16:24:45.952Z,100332.47
2022-12-17T16:27:13.146Z,100335.16
2022-12-17T16:29:39.593Z,100345.72
2022-12-17T16:32:06.430Z,100341.47
2022-12-17T16:34:32.883Z,100346.69
2022-12-17T16:37:01.251Z,100345.84
2022-12-17T16:39:27.924Z,100346.69
2022-12-17T16:41:54.283Z,100344.97
2022-12-17T16:44:20.746Z,100355.44
2022-12-17T16:46:47.168Z,100351.13
2022-12-17T16:49:19.510Z,100356.91
2022-12-17T16:51:48.696Z,100348.31
2022-12-17T16:54:21.036Z,100359.63
2022-12-17T16:56:48.112Z,100356.09
2022-12-17T16:59:16.016Z,100352.72
2022-12-17T17:01:44.907Z,100366.69
2022-12-17T17:04:12.988Z,100371.91
2022-12-17T17:06:41.161Z,100366.72
2022-12-17T17:09:08.320Z,100368.34
2022-12-17T17:11:34.923Z,100377.97
2022-12-17T17:14:01.369Z,100388.44
2022-12-17T17:16:27.961Z,100386.72
2022-12-17T17:18:54.639Z,100383.31
2022-12-17T17:21:29.624Z,100379.84
2022-12-17T17:24:09.920Z,100381.56
2022-12-17T17:26:36.541Z,100378.94
2022-12-17T17:29:03.900Z,100377.16
2022-12-17T17:34:16.764Z,100383.31
2022-12-17T17:36:43.780Z,100377.28
2022-12-17T17:39:10.818Z,100384.16
2022-12-17T17:41:37.307Z,100378.06
2022-12-17T17:44:07.170Z,100386.72
2022-12-17T17:46:34.365Z,100383.22
2022-12-17T17:49:02.679Z,100382.25
2022-12-17T17:52:07.253Z,100389.28
2022-12-17T17:54:18.872Z,100393.72
2022-12-17T17:56:45.229Z,100398.06
2022-12-17T17:59:14.394Z,100402.44
2022-12-17T18:01:43.279Z,100400.63
2022-12-17T18:04:13.024Z,100396.13
2022-12-17T18:06:57.421Z,100396.25
2022-12-17T18:09:27.857Z,100400.50
2022-12-17T18:11:54.261Z,100391.97
2022-12-17T18:14:20.592Z,100387.53
2022-12-17T18:16:48.023Z,100400.66
2022-12-17T18:19:19.949Z,100401.47
2022-12-17T18:21:47.130Z,100396.25
2022-12-17T18:24:16.407Z,100404.13
2022-12-17T18:26:44.397Z,100400.53
2022-12-17T18:29:22.829Z,100398.91
2022-12-17T18:31:52.122Z,100408.63
2022-12-17T18:34:21.376Z,100401.63
2022-12-17T18:36:49.657Z,100397.22
2022-12-17T18:39:21.820Z,100408.63
2022-12-17T18:42:07.977Z,100405.09
2022-12-17T18:44:38.070Z,100420.06
2022-12-17T18:47:04.711Z,100416.69
2022-12-17T18:49:31.220Z,100408.69
2022-12-17T18:51:58.200Z,100407.81
2022-12-17T18:54:27.422Z,100404.38
2022-12-17T18:57:01.620Z,100406.25
2022-12-17T18:59:29.511Z,100411.53
2022-12-17T19:01:56.543Z,100410.59
2022-12-17T19:04:23.518Z,100405.38
2022-12-17T19:06:53.328Z,100414.06
2022-12-17T19:09:26.188Z,100414.16
2022-12-17T19:11:54.220Z,100429.03
2022-12-17T19:14:22.411Z,100430.72
2022-12-17T19:16:50.166Z,100422.06
2022-12-17T19:19:17.277Z,100426.44
2022-12-17T19:21:43.702Z,100415.13
2022-12-17T19:24:13.626Z,100417.66
2022-12-17T19:26:40.509Z,100419.53
2022-12-17T19:29:08.443Z,100425.63
2022-12-17T19:31:35.393Z,100429.13
2022-12-17T19:34:04.865Z,100430.09
2022-12-17T19:36:35.534Z,100420.41
2022-12-17T19:39:05.195Z,100430.03
2022-12-17T19:41:32.774Z,100430.97
2022-12-17T19:44:01.444Z,100423.97
2022-12-17T19:46:29.585Z,100425.72
2022-12-17T19:48:57.299Z,100424.78
2022-12-17T19:51:25.905Z,100423.84
2022-12-17T19:53:52.312Z,100428.22
2022-12-17T19:56:30.503Z,100430.84
2022-12-17T19:59:02.707Z,100428.25
2022-12-17T20:01:31.891Z,100427.41
2022-12-17T20:03:58.896Z,100439.59
2022-12-17T20:06:28.467Z,100437.75
2022-12-17T20:08:55.279Z,100440.31
2022-12-17T20:11:34.082Z,100439.50
2022-12-17T20:14:03.065Z,100437.69
2022-12-17T20:16:31.384Z,100434.25
2022-12-17T20:19:02.218Z,100437.72
2022-12-17T20:21:29.130Z,100438.69
2022-12-17T20:23:55.639Z,100434.25
2022-12-17T20:26:23.617Z,100431.66
2022-12-17T20:28:49.977Z,100428.22
2022-12-17T20:31:17.099Z,100435.22
2022-12-17T20:33:43.838Z,100423.69
2022-12-17T20:36:13.769Z,100434.25
2022-12-17T20:38:41.199Z,100442.06
2022-12-17T20:41:17.500Z,100440.34
2022-12-17T20:43:44.437Z,100442.91
2022-12-17T20:46:11.665Z,100445.56
2022-12-17T20:48:40.099Z,100438.56
2022-12-17T20:51:16.419Z,100439.47
2022-12-17T20:53:44.721Z,100447.34
2022-12-17T20:56:17.651Z,100437.84
2022-12-17T20:58:44.820Z,100446.53
2022-12-17T21:01:12.543Z,100442.97
2022-12-17T21:03:40.177Z,100453.53
2022-12-17T21:06:37.113Z,100448.31
2022-12-17T21:09:04.117Z,100450.88
2022-12-17T21:11:32.601Z,100451.63
2022-12-17T21:14:01.711Z,100456.06
2022-12-17T21:16:31.303Z,100462.22
2022-12-17T21:19:00.095Z,100468.34
2022-12-17T21:21:29.176Z,100464.78
2022-12-17T21:23:56.837Z,100472.66
2022-12-17T21:26:32.031Z,100470.94
2022-12-17T21:29:00.045Z,100464.81
2022-12-17T21:31:28.867Z,100464.81
2022-12-17T21:33:58.714Z,100475.28
2022-12-17T21:36:27.365Z,100467.38
2022-12-17T21:38:54.036Z,100476.06
2022-12-17T21:41:25.751Z,100469.94
2022-12-17T21:43:54.083Z,100464.78
2022-12-17T21:46:20.563Z,100457.88
2022-12-17T21:48:47.254Z,100459.59
2022-12-17T21:51:14.149Z,100463.16
2022-12-17T21:53:43.385Z,100469.25
2022-12-17T21:56:15.798Z,100466.66
2022-12-17T21:58:43.911Z,100465.81
2022-12-17T22:01:22.638Z,100471.03
2022-12-17T22:03:54.107Z,100467.50
2022-12-17T22:06:25.330Z,100466.59
2022-12-17T22:08:58.860Z,100465.72
2022-12-17T22:11:28.025Z,100457.88
2022-12-17T22:14:15.545Z,100458.72
2022-12-17T22:16:48.909Z,100456.97
2022-12-17T22:19:23.463Z,100463.97
2022-12-17T22:21:51.149Z,100472.72
2022-12-17T22:24:24.059Z,100457.91
2022-12-17T22:26:50.540Z,100472.69
2022-12-17T22:29:37.006Z,100474.34
2022-12-17T22:32:22.366Z,100489.16
2022-12-17T22:36:00.068Z,100486.50
2022-12-17T22:41:22.698Z,100486.53
2022-12-17T22:44:03.756Z,100488.22
2022-12-17T22:44:45.636Z,100475.97
2022-12-17T22:46:17.190Z,100472.53
2022-12-17T22:48:43.714Z,100470.84
2022-12-17T22:51:12.721Z,100469.09
2022-12-17T22:53:41.547Z,100478.72
2022-12-17T22:56:19.433Z,100488.34
2022-12-17T22:58:56.073Z,100491.84
2022-12-17T23:01:23.294Z,100492.72
2022-12-17T23:03:53.684Z,100497.09
2022-12-17T23:06:20.721Z,100493.66
2022-12-17T23:08:47.225Z,100489.41
2022-12-17T23:11:19.860Z,100494.56
2022-12-17T23:13:46.291Z,100497.19
2022-12-17T23:16:13.894Z,100515.53
2022-12-17T23:18:41.138Z,100507.69
2022-12-17T23:21:21.111Z,100512.91
2022-12-17T23:23:47.538Z,100505.94
2022-12-17T23:26:23.673Z,100494.66
2022-12-17T23:29:01.820Z,100504.25
2022-12-17T23:31:32.088Z,100497.25
2022-12-17T23:33:58.752Z,100492.91
2022-12-17T23:36:26.261Z,100488.50
2022-12-17T23:38:54.905Z,100491.97
2022-12-17T23:41:25.044Z,100495.50
2022-12-17T23:43:51.549Z,100492.03
2022-12-17T23:46:19.025Z,100497.25
2022-12-17T23:48:46.678Z,100496.34
2022-12-17T23:51:14.805Z,100492.84
2022-12-17T23:53:43.087Z,100496.41
2022-12-17T23:56:12.655Z,100504.13
2022-12-17T23:58:40.710Z,100507.63
